sensor_id;sensor_type;location;lat;lon;timestamp;pressure;altitude;pressure_sealevel;temperature;humidity
47104;BME280;32853;52.164;5.400;2022-12-29T00:02:19;99853.13;;;12.91;100.00
47104;BME280;32853;52.164;5.400;2022-12-29T00:04:44;99830.09;;;12.82;100.00
47104;BME280;32853;52.164;5.400;2022-12-29T00:07:11;99836.88;;;12.71;100.00
47104;BME280;32853;52.164;5.400;2022-12-29T00:09:36;99837.78;;;12.85;100.00
47104;BME280;32853;52.164;5.400;2022-12-29T00:12:21;99830.59;;;13.01;100.00
47104;BME280;32853;52.164;5.400;2022-12-29T00:14:49;99817.47;;;13.01;100.00
47104;BME280;32853;52.164;5.400;2022-12-29T00:17:36;99841.69;;;12.92;100.00
47104;BME280;32853;52.164;5.400;2022-12-29T00:20:05;99816.38;;;12.91;100.00
47104;BME280;32853;52.164;5.400;2022-12-29T00:22:50;99817.56;;;12.99;100.00
47104;BME280;32853;52.164;5.400;2022-12-29T00:25:50;99803.28;;;13.03;100.00
47104;BME280;32853;52.164;5.400;2022-12-29T00:28:34;99813.56;;;12.94;100.00
47104;BME280;32853;52.164;5.400;2022-12-29T00:31:18;99804.44;;;12.87;100.00
47104;BME280;32853;52.164;5.400;2022-12-29T00:34:02;99804.94;;;12.92;100.00
47104;BME280;32853;52.164;5.400;2022-12-29T00:36:51;99794.25;;;12.95;100.00
47104;BME280;32853;52.164;5.400;2022-12-29T00:39:31;99794.44;;;12.92;100.00
47104;BME280;32853;52.164;5.400;2022-12-29T00:42:15;99791.34;;;12.99;100.00
47104;BME280;32853;52.164;5.400;2022-12-29T00:45:03;99786.31;;;13.09;100.00
47104;BME280;32853;52.164;5.400;2022-12-29T00:47:29;99782.63;;;12.99;100.00
47104;BME280;32853;52.164;5.400;2022-12-29T00:49:54;99776.91;;;12.92;100.00
47104;BME280;32853;52.164;5.400;2022-12-29T00:52:19;99767.69;;;12.87;100.00
47104;BME280;32853;52.164;5.400;2022-12-29T00:54:44;99763.28;;;13.00;100.00
47104;BME280;32853;52.164;5.400;2022-12-29T00:57:10;99750.06;;;13.01;100.00
47104;BME280;32853;52.164;5.400;2022-12-29T00:59:39;99746.41;;;13.17;100.00
47104;BME280;32853;52.164;5.400;2022-12-29T01:02:05;99749.97;;;13.16;100.00
47104;BME280;32853;52.164;5.400;2022-12-29T01:04:34;99743.06;;;13.27;100.00
47104;BME280;32853;52.164;5.400;2022-12-29T01:06:59;99744.28;;;12.96;100.00
47104;BME280;32853;52.164;5.400;2022-12-29T01:09:24;99748.38;;;13.00;100.00
47104;BME280;32853;52.164;5.400;2022-12-29T01:15:14;99731.81;;;13.13;100.00
47104;BME280;32853;52.164;5.400;2022-12-29T01:17:40;99740.84;;;13.08;100.00
47104;BME280;32853;52.164;5.400;2022-12-29T01:20:18;99731.97;;;12.97;100.00
47104;BME280;32853;52.164;5.400;2022-12-29T01:22:48;99739.56;;;12.89;100.00
47104;BME280;32853;52.164;5.400;2022-12-29T01:25:13;99738.06;;;12.85;100.00
47104;BME280;32853;52.164;5.400;2022-12-29T01:27:42;99730.63;;;12.78;100.00
47104;BME280;32853;52.164;5.400;2022-12-29T01:32:36;99724.75;;;12.75;100.00
47104;BME280;32853;52.164;5.400;2022-12-29T01:35:03;99730.28;;;12.70;100.00
47104;BME280;32853;52.164;5.400;2022-12-29T01:37:31;99724.63;;;12.64;100.00
47104;BME280;32853;52.164;5.400;2022-12-29T01:42:44;99732.97;;;12.56;100.00
47104;BME280;32853;52.164;5.400;2022-12-29T01:45:10;99730.63;;;12.51;100.00
47104;BME280;32853;52.164;5.400;2022-12-29T01:50:09;99723.19;;;12.45;100.00
47104;BME280;32853;52.164;5.400;2022-12-29T01:52:35;99746.84;;;12.31;100.00
47104;BME280;32853;52.164;5.400;2022-12-29T01:55:02;99749.31;;;12.20;100.00
47104;BME280;32853;52.164;5.400;2022-12-29T01:57:31;99732.13;;;12.29;100.00
47104;BME280;32853;52.164;5.400;2022-12-29T02:00:03;99738.03;;;12.32;100.00
47104;BME280;32853;52.164;5.400;2022-12-29T02:02:29;99732.97;;;12.29;100.00
47104;BME280;32853;52.164;5.400;2022-12-29T02:04:55;99728.66;;;12.28;100.00
47104;BME280;32853;52.164;5.400;2022-12-29T02:07:23;99737.09;;;12.33;100.00
47104;BME280;32853;52.164;5.400;2022-12-29T02:09:49;99744.38;;;12.42;100.00
47104;BME280;32853;52.164;5.400;2022-12-29T02:12:27;99748.06;;;12.53;100.00
47104;BME280;32853;52.164;5.400;2022-12-29T02:14:54;99734.50;;;12.46;100.00
47104;BME280;32853;52.164;5.400;2022-12-29T02:36:46;99736.66;;;12.54;100.00
47104;BME280;32853;52.164;5.400;2022-12-29T02:47:35;99723.19;;;12.45;100.00
47104;BME280;32853;52.164;5.400;2022-12-29T02:52:56;99714.16;;;12.49;100.00
47104;BME280;32853;52.164;5.400;2022-12-29T02:55:31;99723.56;;;12.39;100.00
47104;BME280;32853;52.164;5.400;2022-12-29T03:00:33;99737.25;;;12.44;100.00
47104;BME280;32853;52.164;5.400;2022-12-29T03:03:25;99733.13;;;12.40;100.00
47104;BME280;32853;52.164;5.400;2022-12-29T03:11:12;99750.69;;;12.53;100.00
47104;BME280;32853;52.164;5.400;2022-12-29T03:19:47;99735.25;;;12.48;100.00
47104;BME280;32853;52.164;5.400;2022-12-29T03:22:25;99741.19;;;12.37;100.00
47104;BME280;32853;52.164;5.400;2022-12-29T03:30:37;99726.53;;;12.47;100.00
47104;BME280;32853;52.164;5.400;2022-12-29T03:33:05;99719.38;;;12.37;100.00
47104;BME280;32853;52.164;5.400;2022-12-29T03:35:37;99712.13;;;12.40;100.00
47104;BME280;32853;52.164;5.400;2022-12-29T03:40:57;99717.38;;;12.40;100.00
47104;BME280;32853;52.164;5.400;2022-12-29T03:43:36;99715.84;;;12.50;100.00
47104;BME280;32853;52.164;5.400;2022-12-29T03:46:02;99722.03;;;12.49;100.00
47104;BME280;32853;52.164;5.400;2022-12-29T03:48:32;99716.53;;;12.40;100.00
47104;BME280;32853;52.164;5.400;2022-12-29T03:51:01;99721.63;;;12.43;100.00
47104;BME280;32853;52.164;5.400;2022-12-29T03:53:26;99703.44;;;12.40;100.00
47104;BME280;32853;52.164;5.400;2022-12-29T03:55:52;99718.63;;;12.35;100.00
47104;BME280;32853;52.164;5.400;2022-12-29T04:01:06;99717.84;;;12.20;100.00
47104;BME280;32853;52.164;5.400;2022-12-29T04:03:42;99701.38;;;12.18;100.00
47104;BME280;32853;52.164;5.400;2022-12-29T04:06:08;99715.31;;;12.18;100.00
47104;BME280;32853;52.164;5.400;2022-12-29T04:08:46;99708.38;;;12.17;100.00
47104;BME280;32853;52.164;5.400;2022-12-29T04:11:46;99716.81;;;12.23;100.00
47104;BME280;32853;52.164;5.400;2022-12-29T04:14:04;99716.94;;;12.07;100.00
47104;BME280;32853;52.164;5.400;2022-12-29T04:16:30;99727.34;;;12.08;100.00
47104;BME280;32853;52.164;5.400;2022-12-29T04:18:55;99728.56;;;12.30;100.00
47104;BME280;32853;52.164;5.400;2022-12-29T04:21:20;99743.47;;;12.29;100.00
47104;BME280;32853;52.164;5.400;2022-12-29T04:23:45;99739.81;;;12.32;100.00
47104;BME280;32853;52.164;5.400;2022-12-29T04:26:11;99749.06;;;12.10;100.00
47104;BME280;32853;52.164;5.400;2022-12-29T04:28:36;99753.94;;;12.02;100.00
47104;BME280;32853;52.164;5.400;2022-12-29T04:31:04;99746.28;;;11.99;100.00
47104;BME280;32853;52.164;5.400;2022-12-29T04:33:44;99740.63;;;12.05;100.00
47104;BME280;32853;52.164;5.400;2022-12-29T04:36:15;99741.13;;;11.98;100.00
47104;BME280;32853;52.164;5.400;2022-12-29T04:38:43;99734.38;;;11.93;100.00
47104;BME280;32853;52.164;5.400;2022-12-29T04:41:12;99764.72;;;11.98;100.00
47104;BME280;32853;52.164;5.400;2022-12-29T04:43:37;99769.06;;;11.97;100.00
47104;BME280;32853;52.164;5.400;2022-12-29T04:46:05;99761.47;;;12.21;100.00
47104;BME280;32853;52.164;5.400;2022-12-29T04:48:30;99755.47;;;12.19;100.00
47104;BME280;32853;52.164;5.400;2022-12-29T04:50:58;99762.59;;;12.17;100.00
47104;BME280;32853;52.164;5.400;2022-12-29T04:53:23;99766.06;;;12.17;100.00
47104;BME280;32853;52.164;5.400;2022-12-29T04:55:59;99763.31;;;12.33;100.00
47104;BME280;32853;52.164;5.400;2022-12-29T04:58:27;99760.13;;;12.28;100.00
47104;BME280;32853;52.164;5.400;2022-12-29T05:00:52;99760.69;;;12.33;100.00
47104;BME280;32853;52.164;5.400;2022-12-29T05:03:22;99754.56;;;12.20;100.00
47104;BME280;32853;52.164;5.400;2022-12-29T05:05:47;99777.84;;;12.25;100.00
47104;BME280;32853;52.164;5.400;2022-12-29T05:08:12;99779.25;;;12.16;100.00
47104;BME280;32853;52.164;5.400;2022-12-29T05:10:46;99787.69;;;12.21;100.00
47104;BME280;32853;52.164;5.400;2022-12-29T05:13:12;99801.91;;;12.17;100.00
47104;BME280;32853;52.164;5.400;2022-12-29T05:15:39;99784.91;;;12.10;100.00
47104;BME280;32853;52.164;5.400;2022-12-29T05:18:04;99782.38;;;12.08;100.00
47104;BME280;32853;52.164;5.400;2022-12-29T05:20:29;99783.88;;;12.12;100.00
47104;BME280;32853;52.164;5.400;2022-12-29T05:22:55;99792.00;;;12.08;100.00
47104;BME280;32853;52.164;5.400;2022-12-29T05:25:24;99789.03;;;12.00;100.00
47104;BME280;32853;52.164;5.400;2022-12-29T05:28:06;99795.69;;;11.91;100.00
47104;BME280;32853;52.164;5.400;2022-12-29T05:30:31;99784.41;;;12.17;100.00
47104;BME280;32853;52.164;5.400;2022-12-29T05:35:29;99791.09;;;12.09;100.00
47104;BME280;32853;52.164;5.400;2022-12-29T05:37:54;99805.50;;;12.02;100.00
47104;BME280;32853;52.164;5.400;2022-12-29T05:40:22;99805.66;;;12.13;100.00
47104;BME280;32853;52.164;5.400;2022-12-29T05:42:48;99784.53;;;12.02;100.00
47104;BME280;32853;52.164;5.400;2022-12-29T05:45:13;99782.78;;;11.88;100.00
47104;BME280;32853;52.164;5.400;2022-12-29T05:47:39;99797.06;;;11.97;100.00
47104;BME280;32853;52.164;5.400;2022-12-29T05:50:15;99775.03;;;11.86;100.00
47104;BME280;32853;52.164;5.400;2022-12-29T05:52:40;99793.63;;;11.82;100.00
47104;BME280;32853;52.164;5.400;2022-12-29T05:55:24;99798.56;;;12.01;100.00
47104;BME280;32853;52.164;5.400;2022-12-29T05:57:49;99800.31;;;11.72;100.00
47104;BME280;32853;52.164;5.400;2022-12-29T06:02:47;99809.56;;;11.63;100.00
47104;BME280;32853;52.164;5.400;2022-12-29T06:05:25;99811.59;;;11.88;100.00
47104;BME280;32853;52.164;5.400;2022-12-29T06:07:57;99818.41;;;11.90;100.00
47104;BME280;32853;52.164;5.400;2022-12-29T06:10:26;99818.53;;;11.89;100.00
47104;BME280;32853;52.164;5.400;2022-12-29T06:12:51;99826.75;;;11.83;100.00
47104;BME280;32853;52.164;5.400;2022-12-29T06:17:50;99823.81;;;11.73;100.00
47104;BME280;32853;52.164;5.400;2022-12-29T06:20:16;99825.28;;;11.63;100.00
47104;BME280;32853;52.164;5.400;2022-12-29T06:22:41;99801.59;;;11.80;100.00
47104;BME280;32853;52.164;5.400;2022-12-29T06:25:06;99821.97;;;11.75;100.00
47104;BME280;32853;52.164;5.400;2022-12-29T06:27:35;99840.28;;;11.75;100.00
47104;BME280;32853;52.164;5.400;2022-12-29T06:30:00;99831.31;;;11.65;100.00
47104;BME280;32853;52.164;5.400;2022-12-29T06:32:39;99821.28;;;11.43;100.00
47104;BME280;32853;52.164;5.400;2022-12-29T06:35:04;99842.03;;;11.46;100.00
47104;BME280;32853;52.164;5.400;2022-12-29T06:37:31;99843.59;;;11.34;100.00
47104;BME280;32853;52.164;5.400;2022-12-29T06:39:57;99842.06;;;11.30;100.00
47104;BME280;32853;52.164;5.400;2022-12-29T06:42:22;99853.66;;;11.26;100.00
47104;BME280;32853;52.164;5.400;2022-12-29T06:44:47;99844.03;;;11.27;100.00
47104;BME280;32853;52.164;5.400;2022-12-29T06:49:58;99845.16;;;11.23;100.00
47104;BME280;32853;52.164;5.400;2022-12-29T06:52:23;99827.31;;;11.29;100.00
47104;BME280;32853;52.164;5.400;2022-12-29T06:54:52;99837.94;;;11.12;100.00
47104;BME280;32853;52.164;5.400;2022-12-29T06:57:20;99834.16;;;11.32;100.00
47104;BME280;32853;52.164;5.400;2022-12-29T06:59:50;99845.16;;;11.23;100.00
47104;BME280;32853;52.164;5.400;2022-12-29T07:02:21;99839.09;;;11.37;100.00
47104;BME280;32853;52.164;5.400;2022-12-29T07:04:47;99853.63;;;11.42;100.00
47104;BME280;32853;52.164;5.400;2022-12-29T07:07:12;99833.69;;;11.40;100.00
47104;BME280;32853;52.164;5.400;2022-12-29T07:09:37;99865.94;;;11.40;100.00
47104;BME280;32853;52.164;5.400;2022-12-29T07:12:13;99857.97;;;11.27;100.00
47104;BME280;32853;52.164;5.400;2022-12-29T07:14:40;99843.63;;;11.19;100.00
47104;BME280;32853;52.164;5.400;2022-12-29T07:22:32;99856.19;;;11.28;100.00
47104;BME280;32853;52.164;5.400;2022-12-29T07:24:57;99862.22;;;11.14;100.00
47104;BME280;32853;52.164;5.400;2022-12-29T07:27:26;99863.78;;;11.02;100.00
47104;BME280;32853;52.164;5.400;2022-12-29T07:29:52;99871.06;;;10.97;100.00
47104;BME280;32853;52.164;5.400;2022-12-29T07:34:51;99871.47;;;10.90;100.00
47104;BME280;32853;52.164;5.400;2022-12-29T07:37:16;99874.38;;;11.15;100.00
47104;BME280;32853;52.164;5.400;2022-12-29T07:39:42;99891.28;;;10.94;100.00
47104;BME280;32853;52.164;5.400;2022-12-29T07:42:08;99887.75;;;10.95;100.00
47104;BME280;32853;52.164;5.400;2022-12-29T07:44:33;99894.28;;;10.88;100.00
47104;BME280;32853;52.164;5.400;2022-12-29T07:47:07;99883.13;;;10.84;100.00
47104;BME280;32853;52.164;5.400;2022-12-29T07:49:33;99898.25;;;10.79;100.00
47104;BME280;32853;52.164;5.400;2022-12-29T07:52:03;99878.31;;;10.92;100.00
47104;BME280;32853;52.164;5.400;2022-12-29T07:54:31;99875.59;;;10.94;100.00
47104;BME280;32853;52.164;5.400;2022-12-29T07:56:56;99875.25;;;11.00;100.00
47104;BME280;32853;52.164;5.400;2022-12-29T07:59:22;99884.38;;;10.93;100.00
47104;BME280;32853;52.164;5.400;2022-12-29T08:01:47;99877.78;;;11.01;100.00
47104;BME280;32853;52.164;5.400;2022-12-29T08:04:17;99888.44;;;10.98;100.00
47104;BME280;32853;52.164;5.400;2022-12-29T08:06:42;99885.66;;;10.86;100.00
47104;BME280;32853;52.164;5.400;2022-12-29T08:09:08;99895.88;;;10.90;100.00
47104;BME280;32853;52.164;5.400;2022-12-29T08:11:33;99867.66;;;10.95;100.00
47104;BME280;32853;52.164;5.400;2022-12-29T08:13:58;99870.13;;;10.98;100.00
47104;BME280;32853;52.164;5.400;2022-12-29T08:16:24;99871.13;;;10.96;100.00
47104;BME280;32853;52.164;5.400;2022-12-29T08:18:52;99861.06;;;11.04;100.00
47104;BME280;32853;52.164;5.400;2022-12-29T08:21:17;99848.72;;;11.06;100.00
47104;BME280;32853;52.164;5.400;2022-12-29T08:23:44;99845.34;;;11.20;100.00
47104;BME280;32853;52.164;5.400;2022-12-29T08:26:14;99859.19;;;11.22;100.00
47104;BME280;32853;52.164;5.400;2022-12-29T08:28:42;99864.31;;;11.23;100.00
47104;BME280;32853;52.164;5.400;2022-12-29T08:31:07;99861.94;;;11.19;100.00
47104;BME280;32853;52.164;5.400;2022-12-29T08:33:35;99857.22;;;11.25;100.00
47104;BME280;32853;52.164;5.400;2022-12-29T08:36:01;99861.19;;;11.17;100.00
47104;BME280;32853;52.164;5.400;2022-12-29T08:38:28;99866.75;;;11.26;100.00
47104;BME280;32853;52.164;5.400;2022-12-29T08:40:53;99868.09;;;11.33;100.00
47104;BME280;32853;52.164;5.400;2022-12-29T08:43:19;99878.81;;;11.29;100.00
47104;BME280;32853;52.164;5.400;2022-12-29T08:45:50;99875.34;;;11.28;100.00
47104;BME280;32853;52.164;5.400;2022-12-29T08:48:21;99895.13;;;11.18;100.00
47104;BME280;32853;52.164;5.400;2022-12-29T08:50:50;99891.28;;;11.40;100.00
47104;BME280;32853;52.164;5.400;2022-12-29T08:53:23;99886.78;;;11.42;100.00
47104;BME280;32853;52.164;5.400;2022-12-29T08:58:32;99898.91;;;11.28;100.00
47104;BME280;32853;52.164;5.400;2022-12-29T09:00:58;99889.34;;;11.43;100.00
47104;BME280;32853;52.164;5.400;2022-12-29T09:03:23;99887.56;;;11.44;100.00
47104;BME280;32853;52.164;5.400;2022-12-29T09:05:52;99892.22;;;11.39;100.00
47104;BME280;32853;52.164;5.400;2022-12-29T09:08:20;99901.41;;;11.46;100.00
47104;BME280;32853;52.164;5.400;2022-12-29T09:10:46;99894.59;;;11.27;100.00
47104;BME280;32853;52.164;5.400;2022-12-29T09:13:14;99902.38;;;11.29;100.00
47104;BME280;32853;52.164;5.400;2022-12-29T09:15:40;99895.34;;;11.29;100.00
47104;BME280;32853;52.164;5.400;2022-12-29T09:18:06;99906.75;;;11.28;100.00
47104;BME280;32853;52.164;5.400;2022-12-29T09:20:31;99914.69;;;11.27;100.00
47104;BME280;32853;52.164;5.400;2022-12-29T09:22:57;99899.59;;;11.32;100.00
47104;BME280;32853;52.164;5.400;2022-12-29T09:25:22;99907.97;;;11.53;100.00
47104;BME280;32853;52.164;5.400;2022-12-29T09:27:49;99917.78;;;11.49;100.00
47104;BME280;32853;52.164;5.400;2022-12-29T09:30:19;99923.09;;;11.48;100.00
47104;BME280;32853;52.164;5.400;2022-12-29T09:32:46;99924.22;;;11.44;100.00
47104;BME280;32853;52.164;5.400;2022-12-29T09:35:12;99929.97;;;11.34;100.00
47104;BME280;32853;52.164;5.400;2022-12-29T09:40:19;99954.09;;;11.10;100.00
47104;BME280;32853;52.164;5.400;2022-12-29T09:45:40;99958.31;;;11.12;100.00
47104;BME280;32853;52.164;5.400;2022-12-29T09:48:11;99962.84;;;10.93;100.00
47104;BME280;32853;52.164;5.400;2022-12-29T09:50:41;99967.16;;;10.78;100.00
47104;BME280;32853;52.164;5.400;2022-12-29T09:53:16;99959.91;;;10.83;100.00
47104;BME280;32853;52.164;5.400;2022-12-29T09:55:51;99972.13;;;10.67;100.00
47104;BME280;32853;52.164;5.400;2022-12-29T09:58:26;99981.22;;;10.60;100.00
47104;BME280;32853;52.164;5.400;2022-12-29T10:06:51;100009.16;;;10.59;100.00
47104;BME280;32853;52.164;5.400;2022-12-29T10:09:24;99995.81;;;10.64;100.00
47104;BME280;32853;52.164;5.400;2022-12-29T10:25:55;100027.59;;;11.05;100.00
47104;BME280;32853;52.164;5.400;2022-12-29T10:28:33;100024.28;;;10.86;100.00
47104;BME280;32853;52.164;5.400;2022-12-29T10:31:05;100026.50;;;10.93;100.00
47104;BME280;32853;52.164;5.400;2022-12-29T10:33:39;100034.75;;;10.86;100.00
47104;BME280;32853;52.164;5.400;2022-12-29T10:36:12;100040.66;;;10.89;100.00
47104;BME280;32853;52.164;5.400;2022-12-29T10:38:55;100039.66;;;10.92;100.00
47104;BME280;32853;52.164;5.400;2022-12-29T10:43:54;100049.81;;;10.98;100.00
47104;BME280;32853;52.164;5.400;2022-12-29T10:46:23;100066.91;;;10.88;100.00
47104;BME280;32853;52.164;5.400;2022-12-29T10:48:51;100059.00;;;11.05;100.00
47104;BME280;32853;52.164;5.400;2022-12-29T10:51:21;100063.91;;;11.11;100.00
47104;BME280;32853;52.164;5.400;2022-12-29T10:54:02;100049.09;;;10.79;100.00
47104;BME280;32853;52.164;5.400;2022-12-29T10:56:45;100049.25;;;10.75;100.00
47104;BME280;32853;52.164;5.400;2022-12-29T11:07:15;100082.81;;;11.00;100.00
47104;BME280;32853;52.164;5.400;2022-12-29T11:09:42;100096.25;;;11.10;100.00
47104;BME280;32853;52.164;5.400;2022-12-29T11:17:31;100101.47;;;11.10;100.00
47104;BME280;32853;52.164;5.400;2022-12-29T11:23:02;100116.50;;;11.22;100.00
47104;BME280;32853;52.164;5.400;2022-12-29T11:25:29;100114.91;;;11.20;100.00
47104;BME280;32853;52.164;5.400;2022-12-29T11:30:49;100131.28;;;11.39;100.00
47104;BME280;32853;52.164;5.400;2022-12-29T11:33:30;100142.88;;;11.51;100.00
47104;BME280;32853;52.164;5.400;2022-12-29T11:35:58;100138.47;;;11.35;100.00
47104;BME280;32853;52.164;5.400;2022-12-29T11:38:33;100136.88;;;11.64;100.00
47104;BME280;32853;52.164;5.400;2022-12-29T11:40:59;100132.16;;;11.55;100.00
47104;BME280;32853;52.164;5.400;2022-12-29T11:43:34;100156.88;;;11.50;100.00
47104;BME280;32853;52.164;5.400;2022-12-29T11:46:02;100134.78;;;11.55;100.00
47104;BME280;32853;52.164;5.400;2022-12-29T11:48:33;100154.13;;;11.69;100.00
47104;BME280;32853;52.164;5.400;2022-12-29T11:50:59;100159.25;;;11.70;100.00
47104;BME280;32853;52.164;5.400;2022-12-29T11:53:26;100151.59;;;11.67;100.00
47104;BME280;32853;52.164;5.400;2022-12-29T11:55:53;100153.69;;;11.60;100.00
47104;BME280;32853;52.164;5.400;2022-12-29T11:58:20;100153.47;;;11.81;100.00
47104;BME280;32853;52.164;5.400;2022-12-29T12:00:48;100160.59;;;11.61;100.00
47104;BME280;32853;52.164;5.400;2022-12-29T12:06:03;100174.34;;;11.82;100.00
47104;BME280;32853;52.164;5.400;2022-12-29T12:11:18;100162.16;;;11.81;100.00
47104;BME280;32853;52.164;5.400;2022-12-29T12:16:34;100176.34;;;11.77;100.00
47104;BME280;32853;52.164;5.400;2022-12-29T12:21:56;100181.91;;;11.71;100.00
47104;BME280;32853;52.164;5.400;2022-12-29T12:27:02;100185.47;;;11.70;100.00
47104;BME280;32853;52.164;5.400;2022-12-29T12:34:45;100193.84;;;11.77;100.00
47104;BME280;32853;52.164;5.400;2022-12-29T12:42:56;100200.97;;;11.42;100.00
47104;BME280;32853;52.164;5.400;2022-12-29T12:51:14;100193.84;;;11.28;100.00
47104;BME280;32853;52.164;5.400;2022-12-29T12:59:56;100213.66;;;11.49;100.00
47104;BME280;32853;52.164;5.400;2022-12-29T13:02:34;100212.91;;;11.47;100.00
47104;BME280;32853;52.164;5.400;2022-12-29T13:13:33;100216.81;;;11.56;100.00
47104;BME280;32853;52.164;5.400;2022-12-29T13:19:20;100230.66;;;11.74;100.00
47104;BME280;32853;52.164;5.400;2022-12-29T13:30:03;100234.38;;;11.70;100.00
47104;BME280;32853;52.164;5.400;2022-12-29T13:32:39;100238.41;;;11.92;100.00
47104;BME280;32853;52.164;5.400;2022-12-29T13:40:58;100232.97;;;11.64;100.00
47104;BME280;32853;52.164;5.400;2022-12-29T13:43:32;100242.63;;;11.46;100.00
47104;BME280;32853;52.164;5.400;2022-12-29T13:46:00;100230.75;;;11.72;100.00
47104;BME280;32853;52.164;5.400;2022-12-29T13:48:35;100246.63;;;11.69;100.00
47104;BME280;32853;52.164;5.400;2022-12-29T13:51:15;100237.59;;;11.75;100.00
47104;BME280;32853;52.164;5.400;2022-12-29T13:56:26;100239.34;;;11.74;100.00
47104;BME280;32853;52.164;5.400;2022-12-29T14:02:03;100229.81;;;11.57;100.00
47104;BME280;32853;52.164;5.400;2022-12-29T14:04:54;100231.91;;;11.51;100.00
47104;BME280;32853;52.164;5.400;2022-12-29T14:07:27;100232.81;;;11.50;100.00
47104;BME280;32853;52.164;5.400;2022-12-29T14:09:54;100240.47;;;11.70;100.00
47104;BME280;32853;52.164;5.400;2022-12-29T14:17:39;100270.97;;;11.38;100.00
47104;BME280;32853;52.164;5.400;2022-12-29T14:20:06;100280.09;;;11.14;100.00
47104;BME280;32853;52.164;5.400;2022-12-29T14:22:49;100263.72;;;11.10;100.00
47104;BME280;32853;52.164;5.400;2022-12-29T14:30:53;100273.88;;;10.99;100.00
47104;BME280;32853;52.164;5.400;2022-12-29T14:33:22;100273.19;;;10.78;100.00
47104;BME280;32853;52.164;5.400;2022-12-29T14:35:53;100277.97;;;10.87;100.00
47104;BME280;32853;52.164;5.400;2022-12-29T14:38:20;100282.66;;;10.81;100.00
47104;BME280;32853;52.164;5.400;2022-12-29T14:40:46;100287.88;;;10.81;100.00
47104;BME280;32853;52.164;5.400;2022-12-29T14:43:13;100292.41;;;10.77;100.00
47104;BME280;32853;52.164;5.400;2022-12-29T14:45:42;100294.63;;;10.67;100.00
47104;BME280;32853;52.164;5.400;2022-12-29T14:50:51;100275.94;;;10.75;100.00
47104;BME280;32853;52.164;5.400;2022-12-29T14:56:08;100287.09;;;10.96;100.00
47104;BME280;32853;52.164;5.400;2022-12-29T15:01:17;100285.03;;;10.68;100.00
47104;BME280;32853;52.164;5.400;2022-12-29T15:03:51;100292.53;;;10.74;100.00
47104;BME280;32853;52.164;5.400;2022-12-29T15:06:18;100290.19;;;10.87;100.00
47104;BME280;32853;52.164;5.400;2022-12-29T15:11:17;100286.31;;;10.59;100.00
47104;BME280;32853;52.164;5.400;2022-12-29T15:13:43;100287.03;;;10.80;100.00
47104;BME280;32853;52.164;5.400;2022-12-29T15:18:53;100290.94;;;10.71;100.00
47104;BME280;32853;52.164;5.400;2022-12-29T15:21:20;100282.09;;;10.91;100.00
47104;BME280;32853;52.164;5.400;2022-12-29T15:23:51;100283.88;;;10.91;100.00
47104;BME280;32853;52.164;5.400;2022-12-29T15:26:17;100277.47;;;10.96;100.00
47104;BME280;32853;52.164;5.400;2022-12-29T15:28:47;100286.56;;;10.89;100.00
47104;BME280;32853;52.164;5.400;2022-12-29T15:31:27;100286.03;;;10.83;100.00
47104;BME280;32853;52.164;5.400;2022-12-29T15:36:56;100291.53;;;10.59;100.00
47104;BME280;32853;52.164;5.400;2022-12-29T15:39:31;100290.50;;;10.81;100.00
47104;BME280;32853;52.164;5.400;2022-12-29T15:42:03;100303.16;;;10.71;100.00
47104;BME280;32853;52.164;5.400;2022-12-29T15:44:35;100311.09;;;10.69;100.00
47104;BME280;32853;52.164;5.400;2022-12-29T15:53:14;100321.28;;;10.75;100.00
47104;BME280;32853;52.164;5.400;2022-12-29T15:55:49;100314.09;;;10.79;100.00
47104;BME280;32853;52.164;5.400;2022-12-29T15:58:24;100325.75;;;10.91;100.00
47104;BME280;32853;52.164;5.400;2022-12-29T16:01:25;100317.66;;;10.78;100.00
47104;BME280;32853;52.164;5.400;2022-12-29T16:03:42;100320.78;;;10.67;100.00
47104;BME280;32853;52.164;5.400;2022-12-29T16:06:09;100324.94;;;10.71;100.00
47104;BME280;32853;52.164;5.400;2022-12-29T16:08:36;100330.16;;;10.71;100.00
47104;BME280;32853;52.164;5.400;2022-12-29T16:11:03;100336.25;;;10.72;100.00
47104;BME280;32853;52.164;5.400;2022-12-29T16:13:33;100339.25;;;10.82;100.00
47104;BME280;32853;52.164;5.400;2022-12-29T16:16:13;100339.03;;;10.86;100.00
47104;BME280;32853;52.164;5.400;2022-12-29T16:18:41;100346.34;;;10.97;100.00
47104;BME280;32853;52.164;5.400;2022-12-29T16:21:32;100346.94;;;10.85;100.00
47104;BME280;32853;52.164;5.400;2022-12-29T16:24:00;100353.94;;;10.84;100.00
47104;BME280;32853;52.164;5.400;2022-12-29T16:26:32;100354.13;;;10.81;100.00
47104;BME280;32853;52.164;5.400;2022-12-29T16:28:58;100350.81;;;10.77;100.00
47104;BME280;32853;52.164;5.400;2022-12-29T16:37:19;100356.97;;;10.58;100.00
47104;BME280;32853;52.164;5.400;2022-12-29T16:39:52;100365.84;;;10.72;100.00
47104;BME280;32853;52.164;5.400;2022-12-29T16:53:53;100366.53;;;10.59;100.00
47104;BME280;32853;52.164;5.400;2022-12-29T16:56:33;100373.25;;;10.45;100.00
47104;BME280;32853;52.164;5.400;2022-12-29T17:01:25;100374.94;;;10.28;100.00
47104;BME280;32853;52.164;5.400;2022-12-29T17:03:53;100383.53;;;10.11;100.00
47104;BME280;32853;52.164;5.400;2022-12-29T17:06:22;100392.31;;;10.29;100.00
47104;BME280;32853;52.164;5.400;2022-12-29T17:09:00;100390.34;;;10.34;100.00
47104;BME280;32853;52.164;5.400;2022-12-29T17:11:27;100394.00;;;10.30;100.00
47104;BME280;32853;52.164;5.400;2022-12-29T17:16:58;100399.38;;;10.27;100.00
47104;BME280;32853;52.164;5.400;2022-12-29T17:19:28;100418.28;;;10.13;100.00